Antholz Obertal
31.08.2026, 19:25
Daten in Echtzeit















57 Messstationen
| Favoriten | Station | Höhe | Datum - Uhrzeit |
t (°C) |
N (mm) |
ff (km/h) |
bb (km/h) |
dd |
rH (%) |
p (hPa) |
sd (h) |
EG (W/m²) |
|---|---|---|---|---|---|---|---|---|---|---|---|---|
| Antholz Obertal | 1327 m | 31.08.2026, 19:25 | 17.9 | 0.1 | 6.1 | 10.1 | NO(40.1°) | 85 | 1010.8 | 02:27 | 1 | |
| Auer | 254 m | 31.08.2026, 19:25 | 28.4 | 0.0 | - | - | - | 53 | 1009.4 | 07:58 | 19 | |
| Barbian Kollmann | 463 m | 31.08.2026, 19:25 | 25.2 | 0.0 | 1.8 | 5.0 | N(354.9°) | 57 | 1008.6 | 08:25 | 43 | |
| Bozen | 245 m | 31.08.2026, 19:25 | 30.0 | 0.0 | 5.8 | 22.7 | SW(243.7°) | 40 | 1008.8 | 11:37 | 27 | |
| Branzoll | 227 m | 31.08.2026, 19:25 | 28.9 | 0.0 | 14.0 | 26.3 | S(169°) | 46 | 1008.6 | 09:52 | 36 | |
| Brixen - Vahrn | 585 m | 31.08.2026, 19:25 | 25.1 | 0.0 | 9.0 | 18.7 | N(5°) | 56 | 1009.1 | 08:24 | 7 | |
| Bruneck | 831 m | 31.08.2026, 19:25 | 25.0 | 0.0 | 13.0 | 32.0 | NO(26.1°) | 44 | 1009.2 | 09:27 | 3 | |
| Corvara | 1530 m | 31.08.2026, 19:25 | 18.6 | 0.0 | 5.8 | 11.2 | S(177.1°) | 66 | 1010.3 | 06:11 | 10 | |
| Deutschnofen | 1470 m | 31.08.2026, 19:25 | 19.8 | 0.0 | 30.2 | 43.6 | S(192.6°) | 65 | 1009.0 | 11:46 | 84 | |
| Franzensfeste Grasstein | 833 m | 31.08.2026, 19:25 | 18.3 | 0.8 | 24.8 | 35.6 | SW(241.7°) | 84 | 1012.2 | - | - | |
| Gargazon | 253 m | 31.08.2026, 19:25 | 28.9 | 0.0 | 7.9 | 16.6 | S(161.2°) | 47 | 1009.5 | 09:53 | 32 | |
| Hintermartell | 1714 m | 31.08.2026, 19:25 | 15.7 | 0.0 | 3.6 | 9.4 | S(193.5°) | 64 | 1015.0 | 05:55 | 15 | |
| Jenesien | 972 m | 31.08.2026, 19:25 | 22.8 | 0.0 | 6.8 | 16.6 | SO(136.2°) | 61 | 1010.3 | 09:34 | 27 | |
| Kaltern Oberplanitzing | 492 m | 31.08.2026, 19:25 | 27.1 | 0.0 | 14.8 | 27.4 | S(201.2°) | 48 | 1009.8 | 09:49 | 19 | |
| Karerpass | 1713 m | 31.08.2026, 19:25 | 17.8 | 0.0 | 10.8 | 24.1 | SO(145.9°) | 64 | 1010.1 | 08:06 | 76 | |
| Laas Eyrs | 874 m | 31.08.2026, 19:25 | 22.2 | 0.0 | 6.5 | 15.1 | SW(242.7°) | 52 | 1010.9 | 10:26 | 14 | |
| Laimburg | 224 m | 31.08.2026, 19:25 | 28.8 | 0.0 | 9.4 | 19.1 | SO(149.4°) | 46 | 1011.1 | 09:54 | 20 | |
| Langtaufers Grub | 1844 m | 31.08.2026, 19:25 | 12.2 | 2.6 | 6.5 | 11.2 | NO(66°) | 99 | 1014.9 | 06:12 | 56 | |
| Marienberg | 1312 m | 31.08.2026, 19:25 | 19.9 | 0.0 | - | - | - | 46 | 1011.2 | 07:41 | 19 | |
| Meran | 333 m | 31.08.2026, 19:25 | 29.3 | 0.0 | 31.7 | 62.6 | NO(25°) | 45 | 1009.0 | 09:11 | 21 | |
| Mühlwald | 1140 m | 31.08.2026, 19:25 | 15.2 | 1.7 | - | - | - | 100 | 1014.9 | - | - | |
| Naturns | 537 m | 31.08.2026, 19:25 | 26.8 | 0.0 | 6.8 | 13.0 | SO(127.9°) | 46 | 1009.9 | 10:43 | 24 | |
| Obervintl | 747 m | 31.08.2026, 19:25 | 24.0 | 0.0 | 18.4 | 32.4 | SW(229.3°) | 45 | 1010.3 | 08:54 | 0 | |
| Pens | 1452 m | 31.08.2026, 19:25 | 17.1 | 10.1 | - | - | - | 85 | 1013.3 | - | - | |
| Pfelders | 1622 m | 31.08.2026, 19:25 | 11.5 | 17.0 | 7.6 | 16.6 | SW(217.9°) | 95 | 1015.6 | 05:40 | 97 | |
| Pfitsch St. Jakob | 1438 m | 31.08.2026, 19:25 | 14.2 | 3.5 | 4.7 | 10.1 | SO(119.9°) | 100 | 1014.9 | 03:59 | 13 | |
| Pflersch | 1152 m | 31.08.2026, 19:25 | 16.6 | 2.2 | 4.3 | 20.2 | SO(138.6°) | 95 | 1013.8 | 03:54 | 84 | |
| Pfunders | 1169 m | 31.08.2026, 19:25 | 15.3 | 8.0 | 6.1 | 12.6 | W(264.8°) | 66 | 1012.9 | 03:27 | 0 | |
| Platt in Passeier | 1143 m | 31.08.2026, 19:25 | 13.6 | 14.5 | 7.9 | 12.2 | S(181.4°) | 93 | 1015.4 | 06:07 | 108 | |
| Prettau | 1448 m | 31.08.2026, 19:25 | 14.8 | 2.0 | 3.2 | 15.1 | N(4.7°) | 89 | 1014.6 | 04:25 | 0 | |
| Radein | 1550 m | 31.08.2026, 19:25 | 18.8 | 0.0 | 14.8 | 28.1 | SW(212.4°) | 66 | 1011.5 | 06:56 | 21 | |
| Rein in Taufers | 1562 m | 31.08.2026, 19:25 | 14.1 | 5.0 | 1.4 | 14.8 | NO(36.4°) | 100 | 1014.3 | 06:19 | 1 | |
| Ridnaun | 1365 m | 31.08.2026, 19:25 | 14.5 | 2.1 | - | - | - | 96 | 1017.6 | - | - | |
| Ritten Siffian | 989 m | 31.08.2026, 19:25 | 23.5 | 0.0 | 15.1 | 20.2 | W(287.8°) | 55 | 1009.5 | 10:42 | 43 | |
| Salurn | 214 m | 31.08.2026, 19:25 | 29.0 | 0.0 | 18.4 | 25.2 | W(276.5°) | 42 | 1010.7 | 03:41 | 19 | |
| Sand i.T. Mühlen | 850 m | 31.08.2026, 19:25 | 19.5 | 0.0 | 35.6 | 51.8 | NO(31.8°) | 73 | 1012.7 | 04:10 | 0 | |
| Sarnthein | 970 m | 31.08.2026, 19:25 | 23.4 | 0.0 | 14.0 | 25.2 | SO(143.3°) | 63 | 1009.7 | 08:41 | 52 | |
| Schlanders | 698 m | 31.08.2026, 19:25 | 25.0 | 0.0 | 13.3 | 19.4 | W(268.1°) | 66 | 1010.1 | 09:55 | 15 | |
| Schnals Vernagt | 1697 m | 31.08.2026, 19:25 | 13.9 | 2.4 | - | - | - | 100 | 1014.8 | - | - | |
| Sexten | 1322 m | 31.08.2026, 19:25 | 19.3 | 0.0 | 13.7 | 21.2 | SO(156.3°) | 66 | 1008.9 | 05:59 | 6 | |
| St. Magdalena in Gsies | 1414 m | 31.08.2026, 19:25 | 16.1 | 0.4 | 8.6 | 11.5 | NO(46.6°) | 98 | 1015.6 | 04:06 | 4 | |
| St. Martin in Passeier | 588 m | 31.08.2026, 19:25 | 18.1 | 8.1 | 14.8 | 23.4 | NO(39.5°) | 95 | 1014.8 | 05:26 | 21 | |
| St. Martin in Thurn | 1151 m | 31.08.2026, 19:25 | 20.8 | 0.0 | 5.0 | 10.4 | S(170.1°) | 73 | 1011.9 | 06:46 | 7 | |
| St. Valentin a.d. Haide | 1500 m | 31.08.2026, 19:25 | 14.5 | 1.0 | 14.4 | 22.3 | N(337.9°) | 100 | 1014.2 | 05:43 | 38 | |
| St. Veit in Prags | 1350 m | 31.08.2026, 19:25 | 19.4 | 0.0 | - | - | - | 67 | 1012.1 | - | - | |
| St. Walburg | 1142 m | 31.08.2026, 19:25 | 21.2 | 0.0 | 5.4 | 9.0 | NW(331.9°) | 70 | 1010.4 | 06:18 | 17 | |
| Sterzing | 939 m | 31.08.2026, 19:25 | 17.5 | 8.3 | 8.3 | 23.4 | SW(219.9°) | 100 | 1014.9 | 06:40 | 47 | |
| Sulden | 1902 m | 31.08.2026, 19:25 | 13.8 | 0.0 | - | - | - | 76 | 1012.6 | 04:46 | 28 | |
| Terenten | 1350 m | 31.08.2026, 19:25 | 20.5 | 0.0 | 7.2 | 22.3 | NW(309°) | 53 | 1009.9 | 09:24 | 0 | |
| Toblach | 1218 m | 31.08.2026, 19:25 | 19.2 | 0.1 | 13.0 | 18.0 | O(72.5°) | 74 | 1011.4 | 08:04 | 6 | |
| Ulten Weißbrunn | 1883 m | 31.08.2026, 19:25 | 16.5 | 0.0 | - | - | - | 63 | 1011.1 | 06:18 | 9 | |
| Vals | 1409 m | 31.08.2026, 19:25 | 14.1 | 1.9 | 6.8 | 14.0 | NO(24.8°) | 100 | 1015.0 | 04:57 | 0 | |
| Villnöss | 1327 m | 31.08.2026, 19:25 | 20.7 | 0.0 | 4.7 | 12.2 | W(278.2°) | 60 | 1009.6 | 09:58 | 16 | |
| Völs am Schlern | 840 m | 31.08.2026, 19:25 | 24.9 | 0.0 | 5.0 | 11.9 | SW(241.4°) | 53 | 1012.1 | 09:35 | 42 | |
| Welsberg | 1129 m | 31.08.2026, 19:25 | 20.2 | 0.0 | 3.2 | 9.7 | SO(143.9°) | 74 | 1010.6 | 08:43 | 8 | |
| Welschnofen | 1126 m | 31.08.2026, 19:25 | 22.6 | 0.0 | - | - | - | 59 | 1010.4 | 09:09 | 28 | |
| Wolkenstein | 1594 m | 31.08.2026, 19:25 | 17.2 | 0.0 | - | - | - | 73 | 1011.2 | - | - |
Legende mit den gemessenen Werten:
t:Lufttemperatur (°C)
N:Niederschlagssumme seit Mitternacht (mm)
ff:Mittlere Windgeschwindigkeit (km/h)
bb:Windböe (km/h)
dd:Windrichtung
rH:Relative Luftfeuchtigkeit (%)
p:Luftdruck (hPa)
sd:Sonnenscheindauer (h)
EG:Globalstrahlung (W/m²)